createdAt,value
2023-04-20T00:00:35.015Z,0.00
2023-04-20T00:01:35.015Z,0.00
2023-04-20T00:02:35.118Z,0.00
2023-04-20T00:03:35.154Z,0.00
2023-04-20T00:04:35.023Z,0.00
2023-04-20T00:05:35.064Z,0.00
2023-04-20T00:06:34.959Z,0.00
2023-04-20T00:07:34.947Z,0.00
2023-04-20T00:08:34.951Z,0.00
2023-04-20T00:09:34.931Z,0.00
2023-04-20T00:10:34.924Z,0.00
2023-04-20T00:11:34.949Z,0.00
2023-04-20T00:12:34.894Z,0.00
2023-04-20T00:13:34.863Z,0.00
2023-04-20T00:14:34.884Z,0.00
2023-04-20T00:15:34.855Z,0.00
2023-04-20T00:16:34.892Z,0.00
2023-04-20T00:17:34.835Z,0.00
2023-04-20T00:18:34.812Z,0.00
2023-04-20T00:19:34.863Z,0.00
2023-04-20T00:20:34.804Z,0.00
2023-04-20T00:21:34.805Z,0.00
2023-04-20T00:22:34.782Z,0.00
2023-04-20T00:23:34.768Z,0.00
2023-04-20T00:24:34.802Z,0.00
2023-04-20T00:25:34.742Z,0.00
2023-04-20T00:26:34.720Z,0.00
2023-04-20T00:27:34.720Z,0.00
2023-04-20T00:28:34.715Z,0.00
2023-04-20T00:29:34.705Z,0.00
2023-04-20T00:30:34.763Z,0.00
2023-04-20T00:31:34.656Z,0.00
2023-04-20T00:32:34.685Z,0.00
2023-04-20T00:33:34.636Z,0.00
2023-04-20T00:34:34.644Z,0.00
2023-04-20T00:35:34.615Z,0.00
2023-04-20T00:36:34.606Z,0.00
2023-04-20T00:37:34.610Z,0.00
2023-04-20T00:38:34.588Z,0.00
2023-04-20T00:39:34.596Z,0.00
2023-04-20T00:40:34.570Z,0.00
2023-04-20T00:41:34.559Z,0.00
2023-04-20T00:42:34.535Z,0.00
2023-04-20T00:43:34.521Z,0.00
2023-04-20T00:44:34.558Z,0.00
2023-04-20T00:45:34.506Z,0.00
2023-04-20T00:46:34.567Z,0.00
2023-04-20T00:47:34.498Z,0.00
2023-04-20T00:48:34.482Z,0.00
2023-04-20T00:49:34.468Z,0.00
2023-04-20T00:50:34.445Z,0.00
2023-04-20T00:51:34.445Z,0.00
2023-04-20T00:52:34.415Z,0.00
2023-04-20T00:53:34.446Z,0.00
2023-04-20T00:54:34.416Z,0.00
2023-04-20T00:55:34.393Z,0.00
2023-04-20T00:56:34.396Z,0.00
2023-04-20T00:57:34.363Z,0.00
2023-04-20T00:58:34.359Z,0.00
2023-04-20T00:59:34.347Z,0.00
2023-04-20T01:00:34.347Z,0.00
2023-04-20T01:01:34.322Z,0.00
2023-04-20T01:02:34.419Z,0.00
2023-04-20T01:03:34.580Z,0.00
2023-04-20T01:04:34.343Z,0.00
2023-04-20T01:05:34.276Z,0.00
2023-04-20T01:06:34.259Z,0.00
2023-04-20T01:07:34.250Z,0.00
2023-04-20T01:08:34.250Z,0.00
2023-04-20T01:09:34.276Z,0.00
2023-04-20T01:10:34.213Z,0.00
2023-04-20T01:11:34.198Z,0.00
2023-04-20T01:12:34.197Z,0.00
2023-04-20T01:13:34.183Z,0.00
2023-04-20T01:14:34.188Z,0.00
2023-04-20T01:15:34.183Z,0.00
2023-04-20T01:16:34.205Z,0.00
2023-04-20T01:17:34.165Z,0.00
2023-04-20T01:18:34.137Z,0.00
2023-04-20T01:19:34.140Z,0.00
2023-04-20T01:20:34.125Z,0.00
2023-04-20T01:21:34.104Z,0.00
2023-04-20T01:22:34.075Z,0.00
2023-04-20T01:23:34.060Z,0.00
2023-04-20T01:24:34.084Z,0.00
2023-04-20T01:25:34.064Z,0.00
2023-04-20T01:26:34.057Z,0.00
2023-04-20T01:27:34.014Z,0.00
2023-04-20T01:28:34.021Z,0.00
2023-04-20T01:29:34.030Z,0.00
2023-04-20T01:30:33.999Z,0.00
2023-04-20T01:31:34.086Z,0.00
2023-04-20T01:32:34.033Z,0.00
2023-04-20T01:33:33.966Z,0.00
2023-04-20T01:34:33.973Z,0.00
2023-04-20T01:35:33.947Z,0.00
2023-04-20T01:36:33.948Z,0.00
2023-04-20T01:37:33.927Z,0.00
2023-04-20T01:38:33.912Z,0.00
2023-04-20T01:39:33.915Z,0.00
2023-04-20T01:40:33.881Z,0.00
2023-04-20T01:41:33.980Z,0.00
2023-04-20T01:42:33.868Z,0.00
2023-04-20T01:43:33.837Z,0.00
2023-04-20T01:44:33.825Z,0.00
2023-04-20T01:45:33.827Z,0.00
2023-04-20T01:46:33.882Z,0.00
2023-04-20T01:47:33.816Z,0.00
2023-04-20T01:48:33.795Z,0.00
2023-04-20T01:49:33.767Z,0.00
2023-04-20T01:50:33.797Z,0.00
2023-04-20T01:51:33.744Z,0.00
2023-04-20T01:52:33.739Z,0.00
2023-04-20T01:53:33.734Z,0.00
2023-04-20T01:54:33.731Z,0.00
2023-04-20T01:55:33.725Z,0.00
2023-04-20T01:56:33.704Z,0.00
2023-04-20T01:57:33.704Z,0.00
2023-04-20T01:58:33.682Z,0.00
2023-04-20T01:59:33.653Z,0.00
2023-04-20T02:00:33.708Z,0.00
2023-04-20T02:01:33.638Z,0.00
2023-04-20T02:02:33.761Z,0.00
2023-04-20T02:03:33.764Z,0.00
2023-04-20T02:04:33.612Z,0.00
2023-04-20T02:05:33.625Z,0.00
2023-04-20T02:06:33.617Z,0.00
2023-04-20T02:07:33.577Z,0.00
2023-04-20T02:08:33.558Z,0.00
2023-04-20T02:09:33.547Z,0.00
2023-04-20T02:10:33.568Z,0.00
2023-04-20T02:11:33.530Z,0.00
2023-04-20T02:12:33.508Z,0.00
2023-04-20T02:13:33.526Z,0.00
2023-04-20T02:14:33.490Z,0.00
2023-04-20T02:15:33.508Z,0.00
2023-04-20T02:16:33.503Z,0.00
2023-04-20T02:17:33.548Z,0.00
2023-04-20T02:18:33.458Z,0.00
2023-04-20T02:19:33.427Z,0.00
2023-04-20T02:20:33.440Z,0.00
2023-04-20T02:21:33.415Z,0.00
2023-04-20T02:22:33.423Z,0.00
2023-04-20T02:23:33.389Z,0.00
2023-04-20T02:24:33.373Z,0.00
2023-04-20T02:25:33.350Z,0.00
2023-04-20T02:26:33.369Z,0.00
2023-04-20T02:27:33.331Z,0.00
2023-04-20T02:28:33.330Z,0.00
2023-04-20T02:29:33.346Z,0.00
2023-04-20T02:30:33.327Z,0.00
2023-04-20T02:31:33.383Z,0.00
2023-04-20T02:32:33.316Z,0.00
2023-04-20T02:33:33.280Z,0.00
2023-04-20T02:34:33.298Z,0.00
2023-04-20T02:35:33.255Z,0.00
2023-04-20T02:36:33.230Z,0.00
2023-04-20T02:37:33.236Z,0.00
2023-04-20T02:38:33.219Z,0.00
2023-04-20T02:39:33.190Z,0.00
2023-04-20T02:40:33.203Z,0.00
2023-04-20T02:41:33.181Z,0.00
2023-04-20T02:42:33.174Z,0.00
2023-04-20T02:43:33.163Z,0.00
2023-04-20T02:44:33.153Z,0.00
2023-04-20T02:45:33.183Z,0.00
2023-04-20T02:46:33.149Z,0.00
2023-04-20T02:47:33.104Z,0.00
2023-04-20T02:48:33.112Z,0.00
2023-04-20T02:49:33.082Z,0.00
2023-04-20T02:50:33.117Z,0.00
2023-04-20T02:51:33.111Z,0.00
2023-04-20T02:52:33.068Z,0.00
2023-04-20T02:53:33.037Z,0.00
2023-04-20T02:54:33.046Z,0.00
2023-04-20T02:55:33.030Z,0.00
2023-04-20T02:56:33.448Z,0.00
2023-04-20T02:57:32.997Z,0.00
2023-04-20T02:58:32.986Z,0.00
2023-04-20T02:59:32.967Z,0.00
2023-04-20T03:00:32.990Z,0.00
2023-04-20T03:01:33.008Z,0.00
2023-04-20T03:02:33.124Z,0.00
2023-04-20T03:03:33.211Z,0.00
2023-04-20T03:04:33.043Z,0.00
2023-04-20T03:05:32.926Z,0.00
2023-04-20T03:06:32.892Z,0.00
2023-04-20T03:07:32.876Z,0.00
2023-04-20T03:08:32.884Z,0.00
2023-04-20T03:09:32.893Z,0.00
2023-04-20T03:10:32.885Z,0.00
2023-04-20T03:11:32.843Z,0.00
2023-04-20T03:12:32.822Z,0.00
2023-04-20T03:13:32.830Z,0.00
2023-04-20T03:14:32.808Z,0.00
2023-04-20T03:15:32.784Z,0.00
2023-04-20T03:16:32.860Z,0.00
2023-04-20T03:17:32.803Z,0.00
2023-04-20T03:18:32.757Z,0.00
2023-04-20T03:19:32.755Z,0.00
2023-04-20T03:20:32.741Z,0.00
2023-04-20T03:21:32.720Z,0.00
2023-04-20T03:22:32.721Z,0.00
2023-04-20T03:23:32.711Z,0.00
2023-04-20T03:24:32.680Z,0.00
2023-04-20T03:25:32.711Z,0.00
2023-04-20T03:26:32.656Z,0.00
2023-04-20T03:27:32.668Z,0.00
2023-04-20T03:28:32.635Z,0.00
2023-04-20T03:29:32.656Z,0.00
2023-04-20T03:30:32.623Z,0.00
2023-04-20T03:31:32.687Z,0.00
2023-04-20T03:32:32.871Z,0.00
2023-04-20T03:33:32.632Z,0.00
2023-04-20T03:34:32.565Z,0.00
2023-04-20T03:35:32.595Z,0.00
2023-04-20T03:36:32.559Z,0.00
2023-04-20T03:37:32.551Z,0.00
2023-04-20T03:38:32.530Z,0.00
2023-04-20T03:39:32.523Z,0.00
2023-04-20T03:40:32.520Z,0.00
2023-04-20T03:41:32.499Z,0.00
2023-04-20T03:42:32.500Z,0.00
2023-04-20T03:43:32.465Z,0.00
2023-04-20T03:44:32.463Z,0.00
2023-04-20T03:45:32.462Z,0.00
2023-04-20T03:46:32.512Z,0.00
2023-04-20T03:47:32.426Z,0.00
2023-04-20T03:48:32.428Z,0.00
2023-04-20T03:49:32.431Z,0.00
2023-04-20T03:50:32.410Z,0.00
2023-04-20T03:51:32.376Z,0.00
2023-04-20T03:52:32.390Z,0.00
2023-04-20T03:53:32.356Z,0.00
2023-04-20T03:54:32.338Z,0.00
2023-04-20T03:55:32.339Z,0.00
2023-04-20T03:56:32.313Z,0.00
2023-04-20T03:57:32.307Z,0.00
2023-04-20T03:58:32.310Z,0.00
2023-04-20T03:59:32.301Z,0.00
2023-04-20T04:00:32.309Z,0.00
2023-04-20T04:01:32.277Z,0.00
2023-04-20T04:02:32.354Z,0.00
2023-04-20T04:03:32.464Z,0.00
2023-04-20T04:04:32.514Z,0.00
2023-04-20T04:05:32.269Z,0.00
2023-04-20T04:06:32.245Z,0.00
2023-04-20T04:07:32.205Z,4.00
2023-04-20T04:08:32.259Z,4.00
2023-04-20T04:09:32.184Z,4.00
2023-04-20T04:10:32.171Z,4.00
2023-04-20T04:11:32.159Z,0.00
2023-04-20T04:12:32.143Z,0.00
2023-04-20T04:13:34.393Z,4.00
2023-04-20T04:14:32.108Z,4.00
2023-04-20T04:15:32.141Z,4.00
2023-04-20T04:16:32.140Z,4.00
2023-04-20T04:17:32.155Z,4.00
2023-04-20T04:18:32.070Z,4.00
2023-04-20T04:19:32.078Z,4.00
2023-04-20T04:20:32.054Z,8.00
2023-04-20T04:21:32.097Z,4.00
2023-04-20T04:22:32.036Z,4.00
2023-04-20T04:23:32.016Z,4.00
2023-04-20T04:24:31.999Z,4.00
2023-04-20T04:25:32.005Z,8.00
2023-04-20T04:26:32.005Z,8.00
2023-04-20T04:27:31.987Z,4.00
2023-04-20T04:28:31.979Z,8.00
2023-04-20T04:29:31.941Z,4.00
2023-04-20T04:30:31.936Z,8.00
2023-04-20T04:31:32.082Z,8.00
2023-04-20T04:32:32.022Z,12.00
2023-04-20T04:33:31.896Z,12.00
2023-04-20T04:34:31.895Z,12.00
2023-04-20T04:35:31.946Z,16.00
2023-04-20T04:36:31.877Z,20.00
2023-04-20T04:37:31.895Z,20.00
2023-04-20T04:38:31.858Z,24.00
2023-04-20T04:39:31.830Z,28.00
2023-04-20T04:40:31.839Z,28.00
2023-04-20T04:41:31.858Z,32.00
2023-04-20T04:42:31.805Z,36.00
2023-04-20T04:43:31.792Z,40.00
2023-04-20T04:44:31.770Z,40.00
2023-04-20T04:45:31.791Z,40.00
2023-04-20T04:46:31.801Z,40.00
2023-04-20T04:47:31.768Z,40.00
2023-04-20T04:48:31.722Z,44.00
2023-04-20T04:49:31.732Z,48.00
2023-04-20T04:50:31.715Z,48.00
2023-04-20T04:51:31.730Z,48.00
2023-04-20T04:52:31.676Z,44.00
2023-04-20T04:53:31.709Z,48.00
2023-04-20T04:54:31.673Z,52.00
2023-04-20T04:55:31.685Z,52.00
2023-04-20T04:56:31.634Z,56.00
2023-04-20T04:57:31.642Z,60.00
2023-04-20T04:58:31.609Z,60.00
2023-04-20T04:59:31.619Z,64.00
2023-04-20T05:00:31.590Z,72.00
2023-04-20T05:01:31.627Z,84.00
2023-04-20T05:02:31.900Z,92.00
2023-04-20T05:03:31.714Z,100.00
2023-04-20T05:04:31.679Z,100.00
2023-04-20T05:05:31.549Z,100.00
2023-04-20T05:06:31.539Z,112.00
2023-04-20T05:07:31.525Z,116.00
2023-04-20T05:08:31.496Z,120.00
2023-04-20T05:09:31.533Z,124.00
2023-04-20T05:10:31.473Z,132.00
2023-04-20T05:11:31.494Z,156.00
2023-04-20T05:12:31.450Z,196.00
2023-04-20T05:13:31.459Z,224.00
2023-04-20T05:14:31.440Z,252.00
2023-04-20T05:15:31.425Z,276.00
2023-04-20T05:16:31.489Z,296.00
2023-04-20T05:17:31.513Z,312.00
2023-04-20T05:18:31.380Z,332.00
2023-04-20T05:19:31.375Z,352.00
2023-04-20T05:20:31.373Z,360.00
2023-04-20T05:21:31.369Z,384.00
2023-04-20T05:22:31.349Z,384.00
2023-04-20T05:23:31.340Z,364.00
2023-04-20T05:24:31.327Z,356.00
2023-04-20T05:25:31.338Z,364.00
2023-04-20T05:26:31.301Z,396.00
2023-04-20T05:27:31.295Z,400.00
2023-04-20T05:28:31.302Z,416.00
2023-04-20T05:29:31.260Z,436.00
2023-04-20T05:30:31.259Z,492.00
2023-04-20T05:31:31.268Z,564.00
2023-04-20T05:32:31.269Z,632.00
2023-04-20T05:33:31.214Z,712.00
2023-04-20T05:34:31.241Z,772.00
2023-04-20T05:35:31.204Z,748.00
2023-04-20T05:36:31.199Z,652.00
2023-04-20T05:37:31.181Z,588.00
2023-04-20T05:38:31.166Z,544.00
2023-04-20T05:39:31.168Z,556.00
2023-04-20T05:40:31.135Z,568.00
2023-04-20T05:41:31.176Z,572.00
2023-04-20T05:42:31.109Z,536.00
2023-04-20T05:43:31.105Z,496.00
2023-04-20T05:44:31.102Z,492.00
2023-04-20T05:45:31.138Z,504.00
2023-04-20T05:46:31.063Z,540.00
2023-04-20T05:47:31.136Z,504.00
2023-04-20T05:48:31.055Z,480.00
2023-04-20T05:49:31.036Z,452.00
2023-04-20T05:50:31.022Z,436.00
2023-04-20T05:51:31.009Z,432.00
2023-04-20T05:52:31.019Z,396.00
2023-04-20T05:53:31.014Z,360.00
2023-04-20T05:54:30.975Z,352.00
2023-04-20T05:55:30.969Z,380.00
2023-04-20T05:56:30.971Z,380.00
2023-04-20T05:57:30.975Z,304.00
2023-04-20T05:58:30.963Z,260.00
2023-04-20T05:59:30.921Z,264.00
2023-04-20T06:00:30.934Z,260.00
2023-04-20T06:01:30.912Z,268.00
2023-04-20T06:02:30.992Z,252.00
2023-04-20T06:03:31.082Z,208.00
2023-04-20T06:04:31.176Z,172.00
2023-04-20T06:05:31.042Z,168.00
2023-04-20T06:06:30.837Z,164.00
2023-04-20T06:07:30.870Z,176.00
2023-04-20T06:08:30.814Z,204.00
2023-04-20T06:09:30.814Z,244.00
2023-04-20T06:10:30.793Z,272.00
2023-04-20T06:11:30.801Z,272.00
2023-04-20T06:12:30.786Z,268.00
2023-04-20T06:13:30.788Z,256.00
2023-04-20T06:14:30.747Z,272.00
2023-04-20T06:15:30.906Z,280.00
2023-04-20T06:16:30.750Z,284.00
2023-04-20T06:17:30.795Z,284.00
2023-04-20T06:18:30.716Z,296.00
2023-04-20T06:19:30.725Z,296.00
2023-04-20T06:20:30.689Z,292.00
2023-04-20T06:21:30.686Z,272.00
2023-04-20T06:22:30.708Z,276.00
2023-04-20T06:23:30.652Z,304.00
2023-04-20T06:24:30.641Z,344.00
2023-04-20T06:25:30.643Z,360.00
2023-04-20T06:26:30.614Z,372.00
2023-04-20T06:27:30.658Z,404.00
2023-04-20T06:28:30.601Z,400.00
2023-04-20T06:29:30.615Z,388.00
2023-04-20T06:30:30.587Z,380.00
2023-04-20T06:31:30.626Z,420.00
2023-04-20T06:32:30.579Z,496.00
2023-04-20T06:33:30.552Z,520.00
2023-04-20T06:34:30.527Z,452.00
2023-04-20T06:35:30.563Z,432.00
2023-04-20T06:36:30.496Z,480.00
2023-04-20T06:37:30.554Z,512.00
2023-04-20T06:38:30.487Z,436.00
2023-04-20T06:39:30.481Z,404.00
2023-04-20T06:40:30.471Z,368.00
2023-04-20T06:41:30.458Z,348.00
2023-04-20T06:42:30.472Z,320.00
2023-04-20T06:43:30.428Z,316.00
2023-04-20T06:44:30.415Z,368.00
2023-04-20T06:45:32.846Z,412.00
2023-04-20T06:46:30.429Z,432.00
2023-04-20T06:47:30.448Z,512.00
2023-04-20T06:48:32.089Z,576.00
2023-04-20T06:49:30.364Z,664.00
2023-04-20T06:50:30.350Z,716.00
2023-04-20T06:51:30.354Z,768.00
2023-04-20T06:52:30.345Z,732.00
2023-04-20T06:53:30.311Z,716.00
2023-04-20T06:54:30.289Z,724.00
2023-04-20T06:55:30.283Z,700.00
2023-04-20T06:56:30.278Z,652.00
2023-04-20T06:57:30.296Z,700.00
2023-04-20T06:58:30.247Z,784.00
2023-04-20T06:59:30.260Z,852.00
2023-04-20T07:00:30.245Z,956.00
2023-04-20T07:01:30.379Z,1016.00
2023-04-20T07:02:30.279Z,1088.00
2023-04-20T07:03:30.332Z,1164.00
2023-04-20T07:04:30.231Z,1244.00
2023-04-20T07:05:30.194Z,1424.00
2023-04-20T07:06:30.166Z,1588.00
2023-04-20T07:07:30.192Z,1624.00
2023-04-20T07:08:30.137Z,1620.00
2023-04-20T07:09:30.144Z,1620.00
2023-04-20T07:10:30.122Z,1548.00
2023-04-20T07:11:30.124Z,1396.00
2023-04-20T07:12:30.108Z,1404.00
2023-04-20T07:13:33.418Z,1440.00
2023-04-20T07:14:30.068Z,1460.00
2023-04-20T07:15:30.072Z,1472.00
2023-04-20T07:16:30.139Z,1460.00
2023-04-20T07:17:30.242Z,1456.00
2023-04-20T07:18:30.060Z,1372.00
2023-04-20T07:19:30.039Z,1252.00
2023-04-20T07:20:30.023Z,1176.00
2023-04-20T07:21:30.002Z,1128.00
2023-04-20T07:22:30.016Z,1152.00
2023-04-20T07:23:29.998Z,1156.00
2023-04-20T07:24:29.965Z,1160.00
2023-04-20T07:25:29.957Z,1196.00
2023-04-20T07:26:29.946Z,1260.00
2023-04-20T07:27:29.931Z,1336.00
2023-04-20T07:28:29.928Z,1408.00
2023-04-20T07:29:30.467Z,1464.00
2023-04-20T07:30:29.901Z,1424.00
2023-04-20T07:31:29.894Z,1408.00
2023-04-20T07:32:29.943Z,1444.00
2023-04-20T07:33:29.949Z,1572.00
2023-04-20T07:34:29.852Z,1736.00
2023-04-20T07:35:29.838Z,1796.00
2023-04-20T07:36:29.825Z,1768.00
2023-04-20T07:37:29.834Z,1732.00
2023-04-20T07:38:29.807Z,1704.00
2023-04-20T07:39:29.793Z,1652.00
2023-04-20T07:40:29.789Z,1644.00
2023-04-20T07:41:29.760Z,1608.00
2023-04-20T07:42:29.920Z,1676.00
2023-04-20T07:43:29.741Z,1680.00
2023-04-20T07:44:29.744Z,1636.00
2023-04-20T07:45:29.744Z,1600.00
2023-04-20T07:46:29.726Z,1424.00
2023-04-20T07:47:29.735Z,1224.00
2023-04-20T07:48:29.701Z,1144.00
2023-04-20T07:49:29.964Z,1068.00
2023-04-20T07:50:29.674Z,984.00
2023-04-20T07:51:29.647Z,1040.00
2023-04-20T07:52:29.663Z,1116.00
2023-04-20T07:53:29.657Z,1284.00
2023-04-20T07:54:29.645Z,1416.00
2023-04-20T07:55:29.625Z,1356.00
2023-04-20T07:56:29.609Z,1292.00
2023-04-20T07:57:29.606Z,1120.00
2023-04-20T07:58:29.592Z,1232.00
2023-04-20T07:59:29.579Z,1608.00
2023-04-20T08:00:29.576Z,1840.00
2023-04-20T08:01:29.558Z,1868.00
2023-04-20T08:02:29.663Z,1608.00
2023-04-20T08:03:29.646Z,1552.00
2023-04-20T08:04:29.781Z,1504.00
2023-04-20T08:05:29.852Z,1592.00
2023-04-20T08:06:29.484Z,1572.00
2023-04-20T08:07:29.479Z,1464.00
2023-04-20T08:08:29.726Z,1256.00
2023-04-20T08:09:29.459Z,1272.00
2023-04-20T08:10:29.462Z,1340.00
2023-04-20T08:11:29.436Z,1424.00
2023-04-20T08:12:29.458Z,1360.00
2023-04-20T08:13:29.402Z,1268.00
2023-04-20T08:14:29.472Z,1200.00
2023-04-20T08:15:29.405Z,1296.00
2023-04-20T08:16:29.496Z,1328.00
2023-04-20T08:17:29.387Z,1200.00
2023-04-20T08:18:29.376Z,1132.00
2023-04-20T08:19:29.343Z,1052.00
2023-04-20T08:20:29.326Z,1032.00
2023-04-20T08:21:29.428Z,1168.00
2023-04-20T08:22:29.312Z,1084.00
2023-04-20T08:23:29.287Z,836.00
2023-04-20T08:24:29.289Z,736.00
2023-04-20T08:25:29.280Z,900.00
2023-04-20T08:26:29.380Z,1216.00
2023-04-20T08:27:29.246Z,1204.00
2023-04-20T08:28:34.096Z,1204.00
2023-04-20T08:29:30.245Z,1224.00
2023-04-20T08:30:29.232Z,1184.00
2023-04-20T08:31:29.319Z,1124.00
2023-04-20T08:32:29.190Z,996.00
2023-04-20T08:33:29.212Z,844.00
2023-04-20T08:34:29.166Z,948.00
2023-04-20T08:35:29.169Z,1068.00
2023-04-20T08:36:29.158Z,968.00
2023-04-20T08:37:32.064Z,848.00
2023-04-20T08:38:33.681Z,872.00
2023-04-20T08:39:30.125Z,1068.00
2023-04-20T08:40:29.112Z,1344.00
2023-04-20T08:41:29.096Z,1492.00
2023-04-20T08:42:29.086Z,1628.00
2023-04-20T08:43:29.083Z,1668.00
2023-04-20T08:44:29.060Z,1580.00
2023-04-20T08:45:29.048Z,1472.00
2023-04-20T08:46:29.086Z,1428.00
2023-04-20T08:47:29.076Z,1548.00
2023-04-20T08:48:29.091Z,1732.00
2023-04-20T08:49:28.996Z,1812.00
2023-04-20T08:50:29.000Z,1960.00
2023-04-20T08:51:28.978Z,2144.00
2023-04-20T08:52:28.975Z,2276.00
2023-04-20T08:53:28.995Z,2104.00
2023-04-20T08:54:28.935Z,1880.00
2023-04-20T08:55:28.940Z,1588.00
2023-04-20T08:56:28.938Z,1484.00
2023-04-20T08:57:28.918Z,1456.00
2023-04-20T08:58:28.915Z,1600.00
2023-04-20T08:59:28.887Z,1744.00
2023-04-20T09:00:28.918Z,1760.00
2023-04-20T09:01:35.529Z,2008.00
2023-04-20T09:02:30.036Z,2104.00
2023-04-20T09:03:29.059Z,1884.00
2023-04-20T09:04:29.064Z,1564.00
2023-04-20T09:05:29.007Z,1308.00
2023-04-20T09:06:28.797Z,1036.00
2023-04-20T09:07:28.785Z,912.00
2023-04-20T09:08:28.784Z,976.00
2023-04-20T09:09:28.867Z,920.00
2023-04-20T09:10:28.776Z,856.00
2023-04-20T09:11:28.758Z,868.00
2023-04-20T09:12:28.741Z,936.00
2023-04-20T09:13:28.715Z,980.00
2023-04-20T09:14:28.709Z,928.00
2023-04-20T09:15:28.716Z,916.00
2023-04-20T09:16:28.748Z,1020.00
2023-04-20T09:17:28.714Z,1312.00
2023-04-20T09:18:28.660Z,1596.00
2023-04-20T09:19:28.652Z,1732.00
2023-04-20T09:20:28.650Z,1856.00
2023-04-20T09:21:28.626Z,2048.00
2023-04-20T09:22:28.628Z,1812.00
2023-04-20T09:23:28.662Z,1712.00
2023-04-20T09:24:28.590Z,1524.00
2023-04-20T09:25:29.122Z,2008.00
2023-04-20T09:26:28.579Z,2488.00
2023-04-20T09:27:28.568Z,3048.00
2023-04-20T09:28:28.648Z,3524.00
2023-04-20T09:29:28.553Z,4024.00
2023-04-20T09:30:28.549Z,5532.00
2023-04-20T09:31:28.566Z,6260.00
2023-04-20T09:32:28.612Z,4748.00
2023-04-20T09:33:28.509Z,5256.00
2023-04-20T09:34:28.480Z,4852.00
2023-04-20T09:35:28.465Z,4524.00
2023-04-20T09:36:28.468Z,4704.00
2023-04-20T09:37:28.438Z,4712.00
2023-04-20T09:38:28.462Z,4356.00
2023-04-20T09:39:29.042Z,3956.00
2023-04-20T09:40:28.419Z,3180.00
2023-04-20T09:41:28.419Z,2500.00
2023-04-20T09:42:28.418Z,1868.00
2023-04-20T09:43:28.411Z,1532.00
2023-04-20T09:44:28.389Z,1372.00
2023-04-20T09:45:28.426Z,1232.00
2023-04-20T09:46:28.419Z,1120.00
2023-04-20T09:47:28.400Z,1040.00
2023-04-20T09:48:30.145Z,900.00
2023-04-20T09:49:28.310Z,864.00
2023-04-20T09:50:38.283Z,752.00
2023-04-20T09:51:29.278Z,640.00
2023-04-20T09:52:28.289Z,560.00
2023-04-20T09:53:28.279Z,508.00
2023-04-20T09:54:28.251Z,672.00
2023-04-20T09:55:28.265Z,764.00
2023-04-20T09:56:28.259Z,800.00
2023-04-20T09:57:28.248Z,772.00
2023-04-20T09:58:28.205Z,916.00
2023-04-20T09:59:28.209Z,1068.00
2023-04-20T10:00:28.194Z,1716.00
2023-04-20T10:01:28.275Z,2360.00
2023-04-20T10:02:28.239Z,3204.00
2023-04-20T10:03:28.276Z,3700.00
2023-04-20T10:04:28.255Z,3920.00
2023-04-20T10:05:28.141Z,4024.00
2023-04-20T10:06:28.130Z,4032.00
2023-04-20T10:07:28.141Z,3572.00
2023-04-20T10:08:28.094Z,3212.00
2023-04-20T10:09:28.109Z,3372.00
2023-04-20T10:10:28.086Z,3724.00
2023-04-20T10:11:37.123Z,3828.00
2023-04-20T10:12:29.076Z,3600.00
2023-04-20T10:13:28.060Z,3116.00
2023-04-20T10:14:28.043Z,2660.00
2023-04-20T10:15:28.023Z,2476.00
2023-04-20T10:16:28.060Z,2648.00
2023-04-20T10:17:28.071Z,2576.00
2023-04-20T10:18:28.054Z,3348.00
2023-04-20T10:19:28.016Z,3512.00
2023-04-20T10:20:27.959Z,3308.00
2023-04-20T10:21:27.967Z,2760.00
2023-04-20T10:22:27.934Z,2548.00
2023-04-20T10:23:27.948Z,2724.00
2023-04-20T10:24:27.928Z,2784.00
2023-04-20T10:25:27.912Z,3240.00
2023-04-20T10:26:27.906Z,4664.00
2023-04-20T10:27:27.873Z,5528.00
2023-04-20T10:28:27.899Z,6036.00
2023-04-20T10:29:28.001Z,5532.00
2023-04-20T10:30:27.895Z,4896.00
2023-04-20T10:31:27.934Z,4608.00
2023-04-20T10:32:27.987Z,4996.00
2023-04-20T10:33:27.835Z,6056.00
2023-04-20T10:34:27.841Z,6084.00
2023-04-20T10:35:27.795Z,8140.00
2023-04-20T10:36:27.838Z,6900.00
2023-04-20T10:37:27.761Z,7048.00
2023-04-20T10:38:27.764Z,7260.00
2023-04-20T10:39:27.765Z,4552.00
2023-04-20T10:40:27.752Z,3408.00
2023-04-20T10:41:27.726Z,3360.00
2023-04-20T10:42:27.702Z,4864.00
2023-04-20T10:43:27.703Z,7296.00
2023-04-20T10:44:27.716Z,5996.00
2023-04-20T10:45:27.792Z,4756.00
2023-04-20T10:46:27.848Z,3756.00
2023-04-20T10:47:27.685Z,3420.00
2023-04-20T10:48:27.662Z,3100.00
2023-04-20T10:49:27.674Z,2376.00
2023-04-20T10:50:27.635Z,1912.00
2023-04-20T10:51:27.603Z,1776.00
2023-04-20T10:52:27.606Z,1884.00
2023-04-20T10:53:27.603Z,2264.00
2023-04-20T10:54:27.598Z,2584.00
2023-04-20T10:55:27.568Z,2656.00
2023-04-20T10:56:27.586Z,2252.00
2023-04-20T10:57:27.533Z,1984.00
2023-04-20T10:58:27.564Z,2052.00
2023-04-20T10:59:27.535Z,2068.00
2023-04-20T11:00:27.516Z,2620.00
2023-04-20T11:01:27.706Z,3280.00
2023-04-20T11:02:27.604Z,3484.00
2023-04-20T11:03:27.567Z,3080.00
2023-04-20T11:04:27.514Z,3228.00
2023-04-20T11:05:27.486Z,3728.00
2023-04-20T11:06:27.438Z,3660.00
2023-04-20T11:07:27.429Z,4348.00
2023-04-20T11:08:28.068Z,4448.00
2023-04-20T11:09:27.428Z,6728.00
2023-04-20T11:10:27.389Z,5096.00
2023-04-20T11:11:27.460Z,5724.00
2023-04-20T11:12:27.408Z,6184.00
2023-04-20T11:13:27.392Z,5708.00
2023-04-20T11:14:27.388Z,4960.00
2023-04-20T11:15:27.326Z,4820.00
2023-04-20T11:16:36.914Z,4496.00
2023-04-20T11:17:28.434Z,4284.00
2023-04-20T11:18:27.296Z,4300.00
2023-04-20T11:19:27.294Z,4204.00
2023-04-20T11:20:27.343Z,4308.00
2023-04-20T11:21:27.288Z,4248.00
2023-04-20T11:22:27.251Z,4896.00
2023-04-20T11:23:27.249Z,4748.00
2023-04-20T11:24:27.232Z,5148.00
2023-04-20T11:25:27.232Z,5492.00
2023-04-20T11:26:27.241Z,4752.00
2023-04-20T11:27:27.190Z,5208.00
2023-04-20T11:28:27.192Z,5428.00
2023-04-20T11:29:27.190Z,5416.00
2023-04-20T11:30:27.176Z,6420.00
2023-04-20T11:31:27.294Z,3644.00
2023-04-20T11:32:27.444Z,2356.00
2023-04-20T11:33:27.291Z,1748.00
2023-04-20T11:34:27.117Z,1480.00
2023-04-20T11:35:27.139Z,1436.00
2023-04-20T11:36:27.095Z,1212.00
2023-04-20T11:37:27.077Z,1068.00
2023-04-20T11:38:27.090Z,1356.00
2023-04-20T11:39:27.055Z,2040.00
2023-04-20T11:40:28.743Z,3796.00
2023-04-20T11:41:27.027Z,3676.00
2023-04-20T11:42:27.036Z,3848.00
2023-04-20T11:43:27.004Z,4068.00
2023-04-20T11:44:27.014Z,3824.00
2023-04-20T11:45:27.038Z,3452.00
2023-04-20T11:46:27.026Z,3684.00
2023-04-20T11:47:27.008Z,3596.00
2023-04-20T11:48:26.958Z,3664.00
2023-04-20T11:49:26.980Z,4696.00
2023-04-20T11:50:26.968Z,5480.00
2023-04-20T11:51:26.917Z,5536.00
2023-04-20T11:52:26.910Z,4604.00
2023-04-20T11:53:26.910Z,5532.00
2023-04-20T11:54:26.879Z,4800.00
2023-04-20T11:55:26.913Z,4008.00
2023-04-20T11:56:26.879Z,4780.00
2023-04-20T11:57:26.860Z,5020.00
2023-04-20T11:58:26.845Z,5176.00
2023-04-20T11:59:26.829Z,4660.00
2023-04-20T12:00:26.841Z,4364.00
2023-04-20T12:01:26.808Z,4388.00
2023-04-20T12:02:26.913Z,4268.00
2023-04-20T12:03:26.885Z,4240.00
2023-04-20T12:04:27.024Z,4332.00
2023-04-20T12:05:26.869Z,3844.00
2023-04-20T12:06:26.753Z,4132.00
2023-04-20T12:07:26.749Z,4336.00
2023-04-20T12:08:26.747Z,4044.00
2023-04-20T12:09:26.727Z,3420.00
2023-04-20T12:10:26.721Z,3412.00
2023-04-20T12:11:26.715Z,4856.00
2023-04-20T12:12:26.747Z,3100.00
2023-04-20T12:13:26.666Z,2672.00
2023-04-20T12:14:26.664Z,3360.00
2023-04-20T12:15:26.668Z,4088.00
2023-04-20T12:16:26.797Z,4032.00
2023-04-20T12:17:26.690Z,4248.00
2023-04-20T12:18:26.606Z,5540.00
2023-04-20T12:19:26.609Z,5320.00
2023-04-20T12:20:26.598Z,4660.00
2023-04-20T12:21:26.651Z,5048.00
2023-04-20T12:22:26.583Z,5072.00
2023-04-20T12:23:26.552Z,5312.00
2023-04-20T12:24:26.546Z,4732.00
2023-04-20T12:25:26.567Z,5100.00
2023-04-20T12:26:36.968Z,5440.00
2023-04-20T12:27:27.506Z,5152.00
2023-04-20T12:28:26.504Z,4800.00
2023-04-20T12:29:26.512Z,4664.00
2023-04-20T12:30:26.493Z,4712.00
2023-04-20T12:31:26.794Z,3668.00
2023-04-20T12:32:26.496Z,2900.00
2023-04-20T12:33:26.453Z,2768.00
2023-04-20T12:34:26.424Z,2544.00
2023-04-20T12:35:26.421Z,2748.00
2023-04-20T12:36:26.435Z,2532.00